Time;durP1;ratioP1;P1;durP2;ratioP2;P2;SDS_P1;SDS_P2;PMS_P1;PMS_P2;Temp;Humidity;BMP_temperature;BMP_pressure;BME280_temperature;BME280_humidity;BME280_pressure;Samples;Min_cycle;Max_cycle;Signal;HPM_P1;HPM_P2
2021/09/27 00:01:08;;;;;;;7.15;6.43;;;22.90;69.10;;;;;;5131813;27;20043;-59
2021/09/27 00:03:35;;;;;;;8.27;6.93;;;23.00;68.60;;;;;;5133391;27;20015;-59
2021/09/27 00:06:01;;;;;;;8.27;6.60;;;23.00;68.60;;;;;;5132117;28;20035;-59
2021/09/27 00:08:27;;;;;;;6.95;6.18;;;22.90;68.50;;;;;;5131297;28;20114;-59
2021/09/27 00:11:07;;;;;;;6.95;6.20;;;22.90;68.60;;;;;;5131578;28;20027;-59
2021/09/27 00:13:38;;;;;;;7.38;6.60;;;23.00;68.60;;;;;;5132994;28;20034;-59
2021/09/27 00:16:05;;;;;;;7.95;6.32;;;22.90;68.60;;;;;;5132138;28;20855;-59
2021/09/27 00:18:31;;;;;;;7.07;6.35;;;22.90;68.60;;;;;;5132149;28;20488;-58
2021/09/27 00:21:02;;;;;;;9.10;7.03;;;22.90;68.70;;;;;;5131677;28;20023;-59
2021/09/27 00:23:30;;;;;;;7.70;6.32;;;22.90;68.60;;;;;;5114592;28;20019;-59
2021/09/27 00:25:56;;;;;;;7.60;6.78;;;22.90;68.60;;;;;;5131558;28;20479;-59
2021/09/27 00:28:22;;;;;;;7.47;6.30;;;22.90;68.60;;;;;;5132168;28;20034;-59
2021/09/27 00:30:49;;;;;;;9.35;6.95;;;22.90;68.70;;;;;;5131639;28;20019;-59
2021/09/27 00:33:16;;;;;;;8.52;6.93;;;22.90;68.70;;;;;;5132456;28;20530;-59
2021/09/27 00:35:42;;;;;;;7.80;7.00;;;22.90;68.70;;;;;;5131893;28;20385;-59
2021/09/27 00:38:08;;;;;;;7.55;6.15;;;22.90;68.80;;;;;;5131192;28;20032;-59
2021/09/27 00:40:39;;;;;;;7.43;6.10;;;22.90;68.80;;;;;;5132153;28;20051;-59
2021/09/27 00:43:05;;;;;;;8.15;6.40;;;22.90;68.70;;;;;;5131982;28;20031;-59
2021/09/27 00:45:36;;;;;;;7.88;6.45;;;22.90;68.80;;;;;;5132553;28;20053;-59
2021/09/27 00:48:02;;;;;;;7.75;6.57;;;22.90;68.80;;;;;;5131506;28;20404;-59
2021/09/27 00:50:39;;;;;;;9.32;7.28;;;22.90;68.80;;;;;;5132010;28;20127;-59
2021/09/27 00:53:11;;;;;;;8.07;6.53;;;22.90;68.70;;;;;;5132113;27;20034;-59
2021/09/27 00:55:37;;;;;;;6.60;5.90;;;22.90;68.70;;;;;;5135165;27;20114;-59
2021/09/27 00:58:03;;;;;;;7.75;6.95;;;22.90;68.80;;;;;;5135035;27;20103;-59
2021/09/27 01:00:29;;;;;;;6.78;6.07;;;22.90;68.80;;;;;;5136240;27;20047;-58
2021/09/27 01:02:55;;;;;;;7.10;6.40;;;22.90;68.90;;;;;;5136023;27;20031;-59
2021/09/27 01:05:23;;;;;;;7.88;6.68;;;22.90;69.00;;;;;;5135593;27;20035;-59
2021/09/27 01:08:07;;;;;;;9.30;6.78;;;22.90;68.90;;;;;;5126895;27;20110;-59
2021/09/27 01:10:59;;;;;;;6.85;6.15;;;22.90;68.80;;;;;;5134960;27;20472;-59
2021/09/27 01:13:44;;;;;;;6.88;6.18;;;22.80;68.70;;;;;;5135782;27;20034;-59
2021/09/27 01:16:40;;;;;;;7.78;6.80;;;22.80;68.80;;;;;;5124105;27;20031;-58
2021/09/27 01:19:26;;;;;;;7.75;6.22;;;22.80;68.80;;;;;;5134438;27;20030;-59
2021/09/27 01:22:23;;;;;;;7.28;6.35;;;22.80;68.90;;;;;;5134501;27;20023;-59
2021/09/27 01:25:13;;;;;;;7.13;6.43;;;22.80;68.80;;;;;;5135174;27;20023;-59
2021/09/27 01:28:00;;;;;;;7.88;7.07;;;22.80;68.80;;;;;;5135444;27;20035;-59
2021/09/27 01:30:39;;;;;;;6.95;6.22;;;22.80;68.60;;;;;;5135322;27;20032;-58
2021/09/27 01:33:28;;;;;;;6.95;6.25;;;22.80;68.90;;;;;;5135014;27;20075;-59
2021/09/27 01:36:32;;;;;;;7.82;6.22;;;22.80;68.90;;;;;;5133694;27;20031;-59
2021/09/27 01:39:07;;;;;;;9.20;6.80;;;22.80;68.80;;;;;;5066464;27;20638;-59
2021/09/27 01:41:50;;;;;;;7.70;6.90;;;22.80;68.90;;;;;;5135023;27;20051;-58
2021/09/27 01:44:48;;;;;;;7.55;6.63;;;22.80;68.90;;;;;;5134980;27;20035;-59
2021/09/27 01:47:54;;;;;;;7.55;6.85;;;22.80;68.70;;;;;;5040728;28;20046;-58
2021/09/27 01:50:27;;;;;;;9.02;7.45;;;22.80;68.90;;;;;;5114178;28;20085;-59
2021/09/27 01:53:15;;;;;;;7.30;6.60;;;22.80;68.70;;;;;;5126157;27;20023;-59
2021/09/27 01:55:43;;;;;;;6.95;6.20;;;22.80;68.70;;;;;;5134840;27;20091;-59
2021/09/27 01:58:35;;;;;;;7.28;6.40;;;22.80;68.90;;;;;;5134160;27;20492;-59
2021/09/27 02:01:07;;;;;;;6.90;6.30;;;22.80;68.90;;;;;;5134102;27;20054;-59
2021/09/27 02:03:37;;;;;;;7.40;6.70;;;22.80;68.80;;;;;;5134895;27;20042;-59
2021/09/27 02:06:18;;;;;;;8.35;6.90;;;22.80;69.30;;;;;;5133425;27;20030;-59
2021/09/27 02:09:04;;;;;;;8.40;6.82;;;22.80;68.80;;;;;;5135113;27;20075;-59
2021/09/27 02:11:32;;;;;;;6.95;6.22;;;22.80;68.90;;;;;;5133770;27;20030;-59
2021/09/27 02:14:06;;;;;;;7.13;6.28;;;22.80;68.90;;;;;;5134085;27;20106;-59
2021/09/27 02:16:49;;;;;;;7.28;6.57;;;22.80;68.90;;;;;;5134326;27;20035;-59
2021/09/27 02:19:38;;;;;;;7.30;6.25;;;22.80;68.80;;;;;;5132691;27;20024;-59
2021/09/27 02:22:23;;;;;;;8.50;6.82;;;22.80;68.70;;;;;;5133480;27;20054;-58
2021/09/27 02:25:16;;;;;;;8.05;6.95;;;22.80;68.90;;;;;;5134356;27;20027;-59
2021/09/27 02:27:44;;;;;;;7.07;6.38;;;22.80;68.80;;;;;;5134408;27;20178;-59
2021/09/27 02:30:13;;;;;;;7.55;6.72;;;22.80;68.70;;;;;;5134107;27;20027;-59
2021/09/27 02:33:05;;;;;;;7.38;6.68;;;22.80;68.70;;;;;;5134411;27;20031;-59
2021/09/27 02:35:57;;;;;;;8.27;7.07;;;22.70;68.70;;;;;;5134874;27;20035;-59
2021/09/27 02:38:35;;;;;;;7.30;6.57;;;22.80;68.70;;;;;;5132602;27;20437;-59
2021/09/27 02:41:50;;;;;;;7.53;6.72;;;22.80;68.80;;;;;;5133454;27;20038;-59
2021/09/27 02:44:16;;;;;;;9.23;6.93;;;22.80;68.70;;;;;;5111500;27;20051;-59
2021/09/27 02:46:43;;;;;;;8.30;6.35;;;22.80;68.50;;;;;;5133998;27;20043;-58
2021/09/27 02:49:13;;;;;;;8.30;6.57;;;22.70;68.60;;;;;;5132871;27;20031;-59
2021/09/27 02:51:45;;;;;;;7.68;6.50;;;22.80;68.60;;;;;;5133842;27;20030;-59
2021/09/27 02:54:13;;;;;;;7.03;6.15;;;22.80;68.60;;;;;;5133409;27;20076;-59
2021/09/27 02:57:00;;;;;;;6.97;6.28;;;22.70;68.50;;;;;;5133346;27;20031;-59
2021/09/27 02:59:40;;;;;;;7.47;6.78;;;22.70;68.50;;;;;;5133920;27;20068;-57
2021/09/27 03:02:12;;;;;;;7.32;6.53;;;22.70;68.40;;;;;;5132726;27;20102;-59
2021/09/27 03:04:57;;;;;;;;;;;22.70;68.50;;;;;;5134332;27;20030;-59
2021/09/27 03:07:28;;;;;;;7.75;6.95;;;22.70;68.30;;;;;;5132483;27;19951;-59
2021/09/27 03:10:10;;;;;;;6.90;6.18;;;22.70;68.30;;;;;;5133467;27;20031;-59
2021/09/27 03:12:56;;;;;;;;;;;22.70;68.30;;;;;;5123553;27;20088;-59
2021/09/27 03:15:59;;;;;;;7.15;6.45;;;22.70;68.40;;;;;;5131630;27;19977;-58
2021/09/27 03:18:56;;;;;;;7.50;6.65;;;22.70;68.30;;;;;;5132158;27;20038;-58
2021/09/27 03:21:51;;;;;;;8.27;6.75;;;22.70;68.40;;;;;;5133928;27;20023;-58
2021/09/27 03:24:42;;;;;;;7.25;6.22;;;22.70;68.30;;;;;;5130852;27;20554;-59
2021/09/27 03:27:17;;;;;;;6.72;5.85;;;22.70;68.30;;;;;;5132526;27;20031;-58
2021/09/27 03:30:03;;;;;;;7.68;6.15;;;22.70;68.30;;;;;;5133205;27;20062;-58
2021/09/27 03:32:28;;;;;;;7.45;6.75;;;22.70;68.30;;;;;;5115119;27;20371;-58
2021/09/27 03:35:08;;;;;;;7.10;6.30;;;22.70;68.20;;;;;;5132675;27;20023;-59
2021/09/27 03:37:57;;;;;;;8.40;6.68;;;22.70;68.20;;;;;;5119540;27;20039;-59
2021/09/27 03:40:34;;;;;;;7.65;6.60;;;22.70;68.20;;;;;;5112545;28;20111;-58
2021/09/27 03:43:15;;;;;;;7.03;6.32;;;22.70;68.20;;;;;;5125166;27;20031;-58
2021/09/27 03:46:00;;;;;;;6.50;5.88;;;22.70;68.20;;;;;;5132742;27;20031;-58
2021/09/27 03:48:47;;;;;;;7.07;6.38;;;22.70;68.70;;;;;;5132897;27;20031;-59
2021/09/27 03:51:26;;;;;;;8.68;6.40;;;22.70;68.10;;;;;;5132434;27;20072;-58
2021/09/27 03:54:31;;;;;;;6.85;6.03;;;22.70;68.10;;;;;;5132626;27;20027;-59
2021/09/27 03:57:08;;;;;;;7.07;6.38;;;22.70;68.00;;;;;;5132066;27;20023;-58
2021/09/27 03:59:50;;;;;;;6.97;6.00;;;22.70;68.20;;;;;;5132788;27;20027;-58
2021/09/27 04:02:24;;;;;;;6.60;5.90;;;22.70;68.10;;;;;;5131860;27;20035;-59
2021/09/27 04:05:25;;;;;;;8.30;7.03;;;22.70;68.00;;;;;;5132835;27;20035;-58
2021/09/27 04:08:09;;;;;;;7.57;6.50;;;22.70;68.00;;;;;;5096138;28;20091;-59
2021/09/27 04:10:59;;;;;;;7.07;6.38;;;22.70;68.00;;;;;;5132765;28;20027;-58
2021/09/27 04:13:43;;;;;;;7.10;6.40;;;22.70;68.00;;;;;;5131896;28;20046;-59
2021/09/27 04:16:42;;;;;;;7.78;6.38;;;22.70;68.00;;;;;;5132075;28;20087;-58
2021/09/27 04:19:22;;;;;;;6.22;5.63;;;22.70;68.00;;;;;;5113228;28;20027;-59
2021/09/27 04:22:11;;;;;;;7.07;6.38;;;22.70;68.00;;;;;;5132312;28;20033;-59
2021/09/27 04:24:45;;;;;;;6.28;5.60;;;22.70;67.90;;;;;;5131588;28;20039;-59
2021/09/27 04:27:25;;;;;;;7.15;6.43;;;22.70;67.80;;;;;;5131506;28;20050;-59
2021/09/27 04:30:17;;;;;;;8.30;6.38;;;22.70;67.90;;;;;;5135800;27;20054;-59
2021/09/27 04:33:04;;;;;;;7.65;5.93;;;22.70;67.90;;;;;;5136224;27;20033;-59
2021/09/27 04:35:45;;;;;;;8.35;6.10;;;22.70;67.70;;;;;;5136349;27;20126;-59
2021/09/27 04:38:14;;;;;;;7.57;6.07;;;22.70;67.60;;;;;;5135385;27;20114;-59
2021/09/27 04:41:17;;;;;;;7.55;6.22;;;22.70;67.80;;;;;;5118175;27;20746;-58
2021/09/27 04:44:00;;;;;;;7.13;5.35;;;22.70;67.70;;;;;;5136063;27;20031;-59
2021/09/27 04:46:56;;;;;;;7.80;5.97;;;22.70;67.70;;;;;;5135482;27;20472;-58
2021/09/27 04:49:40;;;;;;;7.10;6.03;;;22.70;67.50;;;;;;5135679;27;20468;-59
2021/09/27 04:52:14;;;;;;;6.80;6.10;;;22.70;67.50;;;;;;5135852;27;20102;-59
2021/09/27 04:55:00;;;;;;;7.38;6.40;;;22.70;67.50;;;;;;5135654;27;20452;-59
2021/09/27 04:57:29;;;;;;;7.65;6.03;;;22.70;67.50;;;;;;5136123;27;20039;-59
2021/09/27 05:00:15;;;;;;;6.85;6.10;;;22.70;67.30;;;;;;5135442;27;20476;-59
2021/09/27 05:02:55;;;;;;;8.80;6.35;;;22.70;67.40;;;;;;5136034;27;20027;-59
2021/09/27 05:05:46;;;;;;;7.68;6.10;;;22.70;67.30;;;;;;5135740;27;20035;-58
2021/09/27 05:08:40;;;;;;;6.70;5.78;;;22.70;67.40;;;;;;5123382;27;20056;-58
2021/09/27 05:11:21;;;;;;;6.35;5.68;;;22.70;67.20;;;;;;5134431;27;20447;-58
2021/09/27 05:13:58;;;;;;;7.70;5.53;;;22.70;67.50;;;;;;5135000;27;20027;-58
2021/09/27 05:16:53;;;;;;;7.78;6.25;;;22.70;67.50;;;;;;5135415;27;20059;-58
2021/09/27 05:20:05;;;;;;;9.35;6.35;;;22.70;67.90;;;;;;5134489;27;20031;-58
2021/09/27 05:22:49;;;;;;;8.50;5.82;;;22.80;67.80;;;;;;5121323;27;20681;-57
2021/09/27 05:25:56;;;;;;;8.52;5.88;;;22.80;67.30;;;;;;5132764;27;20042;-57
2021/09/27 05:28:28;;;;;;;8.95;6.47;;;22.80;66.30;;;;;;5131646;27;20108;-52
2021/09/27 05:30:53;;;;;;;;;;;22.80;65.60;;;;;;5134761;27;20019;-58
2021/09/27 05:33:25;;;;;;;7.80;5.13;;;22.80;64.50;;;;;;5133291;27;20034;-55
2021/09/27 05:36:06;;;;;;;10.32;5.97;;;22.80;65.00;;;;;;5132401;27;20038;-59
2021/09/27 05:38:44;;;;;;;9.60;6.27;;;22.80;63.80;;;;;;5133659;27;20058;-58
2021/09/27 05:41:28;;;;;;;10.32;6.38;;;22.80;63.40;;;;;;5127492;27;20027;-57
2021/09/27 05:44:29;;;;;;;9.20;6.57;;;22.70;62.90;;;;;;5131973;27;20023;-53
2021/09/27 05:47:01;;;;;;;8.80;6.30;;;22.70;62.60;;;;;;5050205;28;20037;-55
2021/09/27 05:49:27;;;;;;;;;;;22.60;62.80;;;;;;5117310;27;20488;-55
2021/09/27 05:52:02;;;;;;;9.23;6.43;;;22.60;63.10;;;;;;5134519;27;20001;-54
2021/09/27 05:54:46;;;;;;;7.65;6.85;;;22.70;62.80;;;;;;5131235;27;20475;-56
2021/09/27 05:57:35;;;;;;;9.35;6.35;;;22.70;62.20;;;;;;5133740;27;20530;-55
2021/09/27 06:00:28;;;;;;;8.82;6.68;;;22.70;62.60;;;;;;5132878;27;20051;-57
2021/09/27 06:03:15;;;;;;;7.80;6.05;;;22.70;62.20;;;;;;5135109;27;20030;-55
2021/09/27 06:05:48;;;;;;;12.15;6.90;;;22.60;61.90;;;;;;5135034;27;20031;-49
2021/09/27 06:08:38;;;;;;;7.70;5.40;;;22.60;62.30;;;;;;5133764;27;20023;-53
2021/09/27 06:11:34;;;;;;;10.18;6.47;;;22.60;62.40;;;;;;5133339;27;20102;-55
2021/09/27 06:14:01;;;;;;;13.50;6.88;;;22.70;62.90;;;;;;5112001;27;20040;-54
2021/09/27 06:16:56;;;;;;;8.45;5.97;;;22.70;63.20;;;;;;5114212;28;20030;-58
2021/09/27 06:19:42;;;;;;;9.93;6.03;;;22.70;63.30;;;;;;5114301;28;20028;-58
2021/09/27 06:22:19;;;;;;;10.35;6.03;;;22.80;63.50;;;;;;5113954;28;20035;-58
2021/09/27 06:24:53;;;;;;;13.93;6.43;;;22.80;64.30;;;;;;5114601;28;20023;-57
2021/09/27 06:27:56;;;;;;;8.10;6.55;;;22.70;63.80;;;;;;5113390;28;20032;-58
2021/09/27 06:30:33;;;;;;;;;;;22.70;63.50;;;;;;5113803;28;20084;-56
2021/09/27 06:33:22;;;;;;;9.15;6.95;;;22.60;63.60;;;;;;5113859;28;19953;-58
2021/09/27 06:35:50;;;;;;;9.48;6.72;;;22.60;63.90;;;;;;5114069;28;20107;-57
2021/09/27 06:38:18;;;;;;;9.40;7.05;;;22.60;63.60;;;;;;5113424;28;20024;-58
2021/09/27 06:40:48;;;;;;;10.60;6.57;;;22.60;63.90;;;;;;5114152;28;20053;-58
2021/09/27 06:43:18;;;;;;;10.50;6.75;;;22.50;63.40;;;;;;5124878;27;20023;-58
2021/09/27 06:45:45;;;;;;;7.78;6.50;;;22.50;63.20;;;;;;5134507;27;20058;-57
2021/09/27 06:48:11;;;;;;;10.55;6.57;;;22.60;63.00;;;;;;5133896;27;20031;-58
2021/09/27 06:50:36;;;;;;;7.57;6.43;;;22.50;63.10;;;;;;5134439;27;20039;-58
2021/09/27 06:53:02;;;;;;;8.45;7.07;;;22.50;62.90;;;;;;5132457;27;20053;-58
2021/09/27 06:55:28;;;;;;;8.48;7.18;;;22.50;63.00;;;;;;5134276;27;20118;-57
2021/09/27 06:57:53;;;;;;;8.43;6.75;;;22.50;63.10;;;;;;5134345;27;20102;-57
2021/09/27 07:00:20;;;;;;;7.95;6.80;;;22.50;63.00;;;;;;5133431;27;20042;-57
2021/09/27 07:02:45;;;;;;;10.48;7.28;;;22.50;63.00;;;;;;5134146;27;20027;-57
2021/09/27 07:05:12;;;;;;;7.43;6.47;;;22.50;63.10;;;;;;5133309;27;20483;-58
2021/09/27 07:07:39;;;;;;;8.20;7.38;;;22.50;63.10;;;;;;5134166;27;20042;-57
2021/09/27 07:10:10;;;;;;;8.38;6.88;;;22.50;63.10;;;;;;5133415;27;20062;-57
2021/09/27 07:12:35;;;;;;;10.85;6.68;;;22.50;63.10;;;;;;5099915;27;20429;-57
2021/09/27 07:15:02;;;;;;;8.10;6.85;;;22.50;63.10;;;;;;5133016;27;20031;-58
2021/09/27 07:17:27;;;;;;;8.02;7.00;;;22.50;63.20;;;;;;5134169;27;20061;-57
2021/09/27 07:19:53;;;;;;;10.07;6.80;;;22.50;63.30;;;;;;5133622;27;20464;-57
2021/09/27 07:22:19;;;;;;;9.02;7.22;;;22.50;63.30;;;;;;5133106;27;20122;-58
2021/09/27 07:24:45;;;;;;;9.30;6.68;;;22.50;63.20;;;;;;5133615;27;20058;-57
2021/09/27 07:27:11;;;;;;;9.55;6.80;;;22.50;63.20;;;;;;5133019;27;20042;-57
2021/09/27 07:29:37;;;;;;;8.02;6.50;;;22.50;63.30;;;;;;5133539;27;20027;-57
2021/09/27 07:32:03;;;;;;;8.50;6.75;;;22.50;63.30;;;;;;5133112;27;20521;-57
2021/09/27 07:34:28;;;;;;;7.70;6.85;;;22.50;63.20;;;;;;5133517;27;20074;-57
2021/09/27 07:36:54;;;;;;;7.78;6.78;;;22.50;63.20;;;;;;5133939;27;20129;-57
2021/09/27 07:39:20;;;;;;;9.55;7.28;;;22.50;63.30;;;;;;5132157;27;20384;-57
2021/09/27 07:41:46;;;;;;;8.40;6.68;;;22.50;63.10;;;;;;5133246;27;20031;-57
2021/09/27 07:44:12;;;;;;;9.05;6.50;;;22.50;63.80;;;;;;5126066;27;20043;-58
2021/09/27 07:46:38;;;;;;;8.05;6.72;;;22.50;63.20;;;;;;5132197;27;20035;-57
2021/09/27 07:49:05;;;;;;;7.20;6.22;;;22.50;63.30;;;;;;5131923;27;20034;-59
2021/09/27 07:51:31;;;;;;;10.10;7.00;;;22.50;63.40;;;;;;5126459;27;20042;-56
2021/09/27 07:53:57;;;;;;;7.70;6.90;;;22.50;63.20;;;;;;5132690;27;20456;-56
2021/09/27 07:56:24;;;;;;;7.82;6.30;;;22.50;63.20;;;;;;5131908;27;20031;-57
2021/09/27 07:58:50;;;;;;;7.28;5.47;;;22.50;63.10;;;;;;5132187;27;20034;-56
2021/09/27 08:01:16;;;;;;;6.65;5.88;;;22.50;63.10;;;;;;5131910;27;20043;-56
2021/09/27 08:03:42;;;;;;;7.07;5.63;;;22.50;63.10;;;;;;5132277;27;20072;-58
2021/09/27 08:06:08;;;;;;;6.25;5.60;;;22.50;63.00;;;;;;5130946;27;20035;-58
2021/09/27 08:08:34;;;;;;;6.00;4.82;;;22.50;63.10;;;;;;5132449;28;20031;-57
2021/09/27 08:11:00;;;;;;;6.40;5.03;;;22.50;63.20;;;;;;5132192;28;20094;-58
2021/09/27 08:13:26;;;;;;;7.10;5.20;;;22.50;63.10;;;;;;5130602;28;20126;-58
2021/09/27 08:15:54;;;;;;;6.60;4.75;;;22.50;62.90;;;;;;5131826;28;20076;-57
2021/09/27 08:18:20;;;;;;;9.50;5.40;;;22.50;62.50;;;;;;5131316;28;20023;-57
2021/09/27 08:20:50;;;;;;;6.13;4.50;;;22.50;62.50;;;;;;5113703;28;20034;-57
2021/09/27 08:23:17;;;;;;;6.40;4.95;;;22.50;62.50;;;;;;5131055;28;20024;-58
2021/09/27 08:25:43;;;;;;;7.00;4.43;;;22.60;62.50;;;;;;5132328;28;20059;-57
2021/09/27 08:28:11;;;;;;;4.43;3.88;;;22.60;62.30;;;;;;5131685;28;20119;-58
2021/09/27 08:30:45;;;;;;;6.50;4.60;;;22.60;62.40;;;;;;5132025;28;20023;-58
2021/09/27 08:33:11;;;;;;;4.20;3.50;;;22.50;62.60;;;;;;5113025;28;20035;-57
2021/09/27 08:35:37;;;;;;;5.43;4.68;;;22.60;62.00;;;;;;5132078;28;20110;-57
2021/09/27 08:38:09;;;;;;;4.90;4.40;;;22.60;62.60;;;;;;5127815;28;20042;-59
2021/09/27 08:41:05;;;;;;;4.28;3.88;;;22.50;62.30;;;;;;5111792;28;20023;-57
2021/09/27 08:43:37;;;;;;;5.00;3.50;;;22.50;62.00;;;;;;5124923;28;20054;-56
2021/09/27 08:46:10;;;;;;;4.15;3.75;;;22.50;61.70;;;;;;5131643;28;20035;-59
2021/09/27 08:48:51;;;;;;;5.18;3.50;;;22.40;61.40;;;;;;5113855;28;20035;-57
2021/09/27 08:51:17;;;;;;;3.97;3.13;;;22.40;61.40;;;;;;5129815;28;20068;-58
2021/09/27 08:53:48;;;;;;;4.10;3.58;;;22.30;61.50;;;;;;5131291;28;20031;-58
2021/09/27 08:56:33;;;;;;;;;;;22.40;61.40;;;;;;5131262;28;20463;-57
2021/09/27 08:59:17;;;;;;;4.50;3.15;;;22.50;61.30;;;;;;5132109;28;19914;-57
2021/09/27 09:02:04;;;;;;;5.30;3.40;;;22.40;61.30;;;;;;5132284;28;20047;-57
2021/09/27 09:05:05;;;;;;;3.97;2.90;;;22.50;61.70;;;;;;5131248;28;20042;-58
2021/09/27 09:07:33;;;;;;;6.03;2.75;;;22.50;61.40;;;;;;5130630;28;20043;-58
2021/09/27 09:10:15;;;;;;;4.15;3.05;;;22.50;61.00;;;;;;5131989;28;20023;-57
2021/09/27 09:12:54;;;;;;;3.93;3.20;;;22.50;61.40;;;;;;5117741;28;20043;-57
2021/09/27 09:15:24;;;;;;;4.03;3.25;;;22.50;61.60;;;;;;5131512;27;20446;-57
2021/09/27 09:18:14;;;;;;;3.72;2.90;;;22.50;60.90;;;;;;5135983;27;20391;-59
2021/09/27 09:20:47;;;;;;;4.18;3.17;;;22.40;61.10;;;;;;5135934;27;20019;-57
2021/09/27 09:23:38;;;;;;;3.72;3.10;;;22.40;61.20;;;;;;5134899;27;20437;-57
2021/09/27 09:26:07;;;;;;;5.25;2.97;;;22.50;61.20;;;;;;5117080;27;20042;-57
2021/09/27 09:28:35;;;;;;;3.55;3.03;;;22.50;61.60;;;;;;5135353;27;20019;-58
2021/09/27 09:31:05;;;;;;;4.75;2.78;;;22.50;62.00;;;;;;5135233;27;20019;-57
2021/09/27 09:34:00;;;;;;;3.05;2.75;;;22.50;61.20;;;;;;5134419;27;20476;-57
2021/09/27 09:36:31;;;;;;;4.80;2.88;;;22.50;60.80;;;;;;5125411;27;20067;-57
2021/09/27 09:38:58;;;;;;;4.65;2.72;;;22.50;60.60;;;;;;5135220;27;20102;-57
2021/09/27 09:41:44;;;;;;;4.05;2.58;;;22.50;60.40;;;;;;5134215;27;20028;-57
2021/09/27 09:44:40;;;;;;;3.70;2.53;;;22.40;60.70;;;;;;5116008;27;20046;-59
2021/09/27 09:47:10;;;;;;;3.20;2.90;;;22.40;61.20;;;;;;5097527;28;20043;-58
2021/09/27 09:49:57;;;;;;;3.70;2.92;;;22.50;60.50;;;;;;5113888;28;20024;-57
2021/09/27 09:52:40;;;;;;;3.97;2.65;;;22.50;60.60;;;;;;5114102;28;20023;-58
2021/09/27 09:55:29;;;;;;;6.75;3.50;;;22.60;60.70;;;;;;5114627;28;20027;-57
2021/09/27 09:58:00;;;;;;;3.60;2.85;;;22.60;60.50;;;;;;5134149;27;20031;-57
2021/09/27 10:00:42;;;;;;;5.78;2.78;;;22.60;60.80;;;;;;5133926;27;20478;-57
2021/09/27 10:03:18;;;;;;;3.28;2.50;;;22.60;60.90;;;;;;5134453;27;20032;-59
2021/09/27 10:05:48;;;;;;;3.33;2.97;;;22.60;60.70;;;;;;5135045;27;20034;-57
2021/09/27 10:08:23;;;;;;;3.65;2.72;;;22.60;60.60;;;;;;5133717;27;20031;-57
2021/09/27 10:10:59;;;;;;;4.25;2.65;;;22.60;60.90;;;;;;5134768;27;20027;-58
2021/09/27 10:13:53;;;;;;;5.50;2.70;;;22.60;60.50;;;;;;5133396;27;20481;-58
2021/09/27 10:16:43;;;;;;;4.47;2.80;;;22.60;60.50;;;;;;5133489;27;20024;-58
2021/09/27 10:19:27;;;;;;;4.55;2.95;;;22.60;60.60;;;;;;5133452;27;20030;-59
2021/09/27 10:22:13;;;;;;;3.25;2.63;;;22.60;60.60;;;;;;5134492;27;20023;-58
2021/09/27 10:24:40;;;;;;;5.43;2.80;;;22.60;60.70;;;;;;5134530;27;20422;-57
2021/09/27 10:27:33;;;;;;;7.63;2.60;;;22.60;60.50;;;;;;5134176;27;20118;-58
2021/09/27 10:30:06;;;;;;;3.97;2.67;;;22.60;60.50;;;;;;5130411;27;20388;-57
2021/09/27 10:32:34;;;;;;;5.38;2.78;;;22.60;60.40;;;;;;5133279;27;20023;-58
2021/09/27 10:35:17;;;;;;;6.25;2.95;;;22.60;60.40;;;;;;5134300;27;20076;-58
2021/09/27 10:37:45;;;;;;;3.47;2.60;;;22.60;60.00;;;;;;5133578;27;20027;-57
2021/09/27 10:40:16;;;;;;;4.55;2.30;;;22.60;59.50;;;;;;5129201;27;20042;-59
2021/09/27 10:42:48;;;;;;;3.47;2.50;;;22.60;59.70;;;;;;5134078;27;20443;-58
2021/09/27 10:45:16;;;;;;;3.75;2.28;;;22.60;58.90;;;;;;5132887;27;20269;-58
2021/09/27 10:47:47;;;;;;;3.22;2.42;;;22.60;60.00;;;;;;5134126;27;20039;-58
2021/09/27 10:50:27;;;;;;;2.95;2.40;;;22.60;59.60;;;;;;5133106;27;20447;-59
2021/09/27 10:52:52;;;;;;;5.18;2.75;;;22.60;60.10;;;;;;5115498;27;20062;-57
2021/09/27 10:55:26;;;;;;;4.20;3.03;;;22.60;59.90;;;;;;5132778;27;20053;-58
2021/09/27 10:58:00;;;;;;;3.60;2.75;;;22.60;59.90;;;;;;5133745;27;20537;-57
2021/09/27 11:00:49;;;;;;;4.03;2.53;;;22.70;60.10;;;;;;5132121;27;20055;-58
2021/09/27 11:03:31;;;;;;;2.92;2.33;;;22.70;59.90;;;;;;5132677;27;20035;-58
2021/09/27 11:06:20;;;;;;;;;;;22.60;60.00;;;;;;5133760;27;20041;-58
2021/09/27 11:08:46;;;;;;;2.33;2.10;;;22.70;60.00;;;;;;5082934;27;20290;-58
2021/09/27 11:11:37;;;;;;;3.25;2.70;;;22.70;60.00;;;;;;5127298;27;20031;-59
2021/09/27 11:14:20;;;;;;;3.40;2.53;;;22.70;59.70;;;;;;5115121;27;20480;-58
2021/09/27 11:16:53;;;;;;;3.95;2.85;;;22.70;60.00;;;;;;5133499;27;20026;-58
2021/09/27 11:19:23;;;;;;;4.45;2.95;;;22.70;60.00;;;;;;5132067;27;20058;-58
2021/09/27 11:21:49;;;;;;;3.03;2.47;;;22.70;59.60;;;;;;5133366;27;20038;-58
2021/09/27 11:24:17;;;;;;;4.85;2.05;;;22.70;59.20;;;;;;5132443;27;20031;-58
2021/09/27 11:27:15;;;;;;;3.03;2.30;;;22.70;60.30;;;;;;5132505;27;20039;-58
2021/09/27 11:29:52;;;;;;;4.57;2.58;;;22.70;59.80;;;;;;5076341;27;20031;-58
2021/09/27 11:32:28;;;;;;;5.05;2.33;;;22.70;59.60;;;;;;5132373;27;20019;-58
2021/09/27 11:34:55;;;;;;;4.20;2.70;;;22.70;58.70;;;;;;5132650;27;20107;-58
2021/09/27 11:37:27;;;;;;;4.07;2.67;;;22.70;58.60;;;;;;5132003;27;20042;-58
2021/09/27 11:39:53;;;;;;;;;;;22.70;59.80;;;;;;5132283;27;20019;-60
2021/09/27 11:42:19;;;;;;;4.10;2.72;;;22.70;60.00;;;;;;5131967;27;19918;-58
2021/09/27 11:45:01;;;;;;;3.53;2.45;;;22.70;58.70;;;;;;5132708;27;20027;-58
2021/09/27 11:47:42;;;;;;;4.13;2.63;;;22.70;58.80;;;;;;5131521;27;20035;-58
2021/09/27 11:50:32;;;;;;;3.00;2.33;;;22.80;58.70;;;;;;5132362;27;20030;-58
2021/09/27 11:53:16;;;;;;;3.25;2.50;;;22.80;58.70;;;;;;5132473;27;20249;-59
2021/09/27 11:55:56;;;;;;;3.58;2.08;;;22.80;58.60;;;;;;5132552;27;20019;-58
2021/09/27 11:58:34;;;;;;;2.78;2.40;;;22.80;58.50;;;;;;5131728;27;20022;-58
2021/09/27 12:01:06;;;;;;;2.83;1.98;;;22.80;58.70;;;;;;5131931;27;20212;-58
2021/09/27 12:03:48;;;;;;;3.03;2.45;;;22.80;58.90;;;;;;5131286;27;20023;-58
2021/09/27 12:06:16;;;;;;;;;;;22.80;58.90;;;;;;5132313;27;20077;-60
2021/09/27 12:09:00;;;;;;;2.35;1.83;;;22.80;58.90;;;;;;5132322;27;19935;-58
2021/09/27 12:11:27;;;;;;;3.38;1.90;;;22.80;58.00;;;;;;5112735;28;20034;-58
2021/09/27 12:13:58;;;;;;;2.90;1.95;;;22.70;58.50;;;;;;5113976;28;20035;-58
2021/09/27 12:16:28;;;;;;;2.75;2.30;;;22.70;58.60;;;;;;5131429;28;20023;-58
2021/09/27 12:19:02;;;;;;;2.42;2.00;;;22.80;58.60;;;;;;5131458;28;20042;-58
2021/09/27 12:21:38;;;;;;;2.03;1.83;;;22.80;58.40;;;;;;5131646;28;20074;-58
2021/09/27 12:24:20;;;;;;;1.90;1.70;;;22.80;57.90;;;;;;5110087;28;20024;-58
2021/09/27 12:27:09;;;;;;;3.15;1.80;;;22.80;57.90;;;;;;5112995;28;20487;-58
2021/09/27 12:29:49;;;;;;;2.22;1.67;;;22.80;58.50;;;;;;5131181;28;20638;-58
2021/09/27 12:32:24;;;;;;;1.77;1.63;;;22.80;58.50;;;;;;5132100;28;20019;-60
2021/09/27 12:34:50;;;;;;;2.95;1.80;;;22.80;57.90;;;;;;5132370;28;20033;-58
2021/09/27 12:37:19;;;;;;;1.98;1.80;;;22.80;57.50;;;;;;5130984;28;20111;-60
2021/09/27 12:39:46;;;;;;;2.40;1.70;;;22.80;58.00;;;;;;5132183;28;20031;-58
2021/09/27 12:42:24;;;;;;;4.38;1.83;;;22.80;58.40;;;;;;5131534;28;20468;-59
2021/09/27 12:45:10;;;;;;;2.15;1.75;;;22.90;58.10;;;;;;5132255;28;20051;-58
2021/09/27 12:47:36;;;;;;;2.30;1.55;;;22.90;58.00;;;;;;5130515;28;20192;-58
2021/09/27 12:50:05;;;;;;;2.40;1.52;;;22.80;57.70;;;;;;5132377;27;20030;-58
2021/09/27 12:52:34;;;;;;;2.13;1.85;;;22.80;58.00;;;;;;5134571;27;20502;-58
2021/09/27 12:55:05;;;;;;;1.98;1.77;;;22.80;57.90;;;;;;5135925;27;20387;-58
2021/09/27 12:57:48;;;;;;;2.25;1.77;;;22.90;58.40;;;;;;5134613;27;20452;-58
2021/09/27 13:00:41;;;;;;;2.33;1.63;;;22.80;57.90;;;;;;5134799;27;20116;-60
2021/09/27 13:03:09;;;;;;;3.17;1.83;;;22.80;58.00;;;;;;5135832;27;20027;-58
2021/09/27 13:05:52;;;;;;;2.47;1.75;;;22.90;57.30;;;;;;5134565;27;20064;-58
2021/09/27 13:08:38;;;;;;;3.65;2.30;;;22.80;57.50;;;;;;5134962;27;20068;-58
2021/09/27 13:11:04;;;;;;;2.08;1.73;;;22.90;57.90;;;;;;5135387;27;20074;-58
2021/09/27 13:13:36;;;;;;;2.28;1.58;;;22.90;57.80;;;;;;5134639;27;20039;-59
2021/09/27 13:16:10;;;;;;;6.10;2.05;;;22.90;57.60;;;;;;5135285;27;20035;-58
2021/09/27 13:18:42;;;;;;;2.10;1.50;;;22.90;57.80;;;;;;5114304;28;20039;-58
2021/09/27 13:21:16;;;;;;;;;;;22.90;57.80;;;;;;5115386;28;20078;-58
2021/09/27 13:23:51;;;;;;;3.10;1.85;;;22.90;57.60;;;;;;5124738;27;19914;-58
2021/09/27 13:26:25;;;;;;;3.90;1.85;;;22.90;57.60;;;;;;5134387;27;20031;-59
2021/09/27 13:29:31;;;;;;;2.70;1.77;;;22.90;57.60;;;;;;5135343;27;20035;-58
2021/09/27 13:32:18;;;;;;;2.42;1.65;;;22.90;57.90;;;;;;5135637;27;20106;-58
2021/09/27 13:35:06;;;;;;;3.33;1.90;;;22.80;58.00;;;;;;5135027;27;20143;-58
2021/09/27 13:37:55;;;;;;;2.10;1.35;;;22.90;58.10;;;;;;5134425;27;20037;-58
2021/09/27 13:40:32;;;;;;;3.53;1.60;;;22.90;58.30;;;;;;5133882;27;20387;-59